Time;durP1;ratioP1;P1;durP2;ratioP2;P2;SDS_P1;SDS_P2;PMS_P1;PMS_P2;Temp;Humidity;BMP_temperature;BMP_pressure;BME280_temperature;BME280_humidity;BME280_pressure;Samples;Min_cycle;Max_cycle;Signal;HPM_P1;HPM_P2
2022/12/05 00:02:20;;;;;;;35.08;19.83;;;;;;;;;;5051500;28;20100;-68
2022/12/05 00:04:46;;;;;;;37.72;18.35;;;;;;;;;;5060630;28;20049;-68
2022/12/05 00:07:13;;;;;;;35.25;18.48;;;;;;;;;;5059863;28;20057;-69
2022/12/05 00:09:39;;;;;;;40.40;20.20;;;;;;;;;;5062529;28;20049;-68
2022/12/05 00:12:05;;;;;;;36.50;19.20;;;;;;;;;;5055815;28;20058;-69
2022/12/05 00:14:31;;;;;;;35.25;19.10;;;;;;;;;;5051463;28;20049;-69
2022/12/05 00:16:58;;;;;;;32.85;18.45;;;;;;;;;;5061766;28;20107;-68
2022/12/05 00:19:24;;;;;;;35.08;18.77;;;;;;;;;;5061964;28;20136;-69
2022/12/05 00:21:50;;;;;;;32.22;18.30;;;;;;;;;;5062268;28;20059;-68
2022/12/05 00:24:18;;;;;;;35.03;18.85;;;;;;;;;;5059656;28;20056;-68
2022/12/05 00:26:44;;;;;;;38.53;19.15;;;;;;;;;;5063746;28;20041;-68
2022/12/05 00:29:11;;;;;;;39.25;18.95;;;;;;;;;;5062731;28;20059;-68
2022/12/05 00:31:37;;;;;;;39.63;19.08;;;;;;;;;;5055665;28;20115;-68
2022/12/05 00:34:04;;;;;;;35.55;18.00;;;;;;;;;;5062058;28;20048;-68
2022/12/05 00:36:32;;;;;;;35.28;18.25;;;;;;;;;;5063045;28;20099;-68
2022/12/05 00:38:59;;;;;;;37.80;19.05;;;;;;;;;;5063238;28;20049;-68
2022/12/05 00:41:26;;;;;;;33.45;17.77;;;;;;;;;;5062657;28;20136;-68
2022/12/05 00:43:53;;;;;;;34.45;18.63;;;;;;;;;;5060667;28;20553;-67
2022/12/05 00:46:20;;;;;;;35.13;18.77;;;;;;;;;;5061107;28;20049;-68
2022/12/05 00:48:46;;;;;;;39.80;20.33;;;;;;;;;;5057505;28;20056;-68
2022/12/05 00:51:17;;;;;;;39.45;19.75;;;;;;;;;;5061030;28;20045;-68
2022/12/05 00:53:44;;;;;;;38.65;19.83;;;;;;;;;;5057817;28;20065;-69
2022/12/05 00:56:14;;;;;;;37.60;20.05;;;;;;;;;;5061952;28;20258;-68
2022/12/05 00:58:40;;;;;;;37.90;19.33;;;;;;;;;;5061319;28;20049;-69
2022/12/05 01:01:12;;;;;;;40.05;18.85;;;;;;;;;;5060717;28;20052;-69
2022/12/05 01:03:39;;;;;;;41.20;19.95;;;;;;;;;;5063970;28;20148;-68
2022/12/05 01:06:05;;;;;;;39.85;20.23;;;;;;;;;;5061019;28;20049;-69
2022/12/05 01:08:32;;;;;;;37.05;20.08;;;;;;;;;;5056784;28;20056;-68
2022/12/05 01:10:59;;;;;;;43.00;19.88;;;;;;;;;;5045400;28;20056;-68
2022/12/05 01:13:26;;;;;;;39.95;19.70;;;;;;;;;;5055803;28;20438;-68
2022/12/05 01:15:52;;;;;;;38.67;20.58;;;;;;;;;;5061053;28;20049;-69
2022/12/05 01:18:19;;;;;;;40.70;20.08;;;;;;;;;;5059405;28;20076;-69
2022/12/05 01:20:46;;;;;;;35.15;19.90;;;;;;;;;;5051858;28;20131;-69
2022/12/05 01:23:12;;;;;;;38.38;19.77;;;;;;;;;;5070720;28;20049;-70
2022/12/05 01:25:39;;;;;;;41.17;20.80;;;;;;;;;;5054920;28;20045;-69
2022/12/05 01:28:06;;;;;;;39.45;20.98;;;;;;;;;;5062254;28;20048;-69
2022/12/05 01:30:36;;;;;;;36.50;20.40;;;;;;;;;;5056963;28;20057;-70
2022/12/05 01:33:02;;;;;;;41.17;21.08;;;;;;;;;;5062130;28;20058;-69
2022/12/05 01:35:36;;;;;;;41.28;20.58;;;;;;;;;;5063313;28;20507;-69
2022/12/05 01:38:03;;;;;;;37.30;18.58;;;;;;;;;;5047289;28;20103;-69
2022/12/05 01:40:30;;;;;;;38.03;19.40;;;;;;;;;;5061197;28;20057;-68
2022/12/05 01:42:56;;;;;;;39.60;20.80;;;;;;;;;;5060814;28;20099;-68
2022/12/05 01:45:25;;;;;;;36.47;19.40;;;;;;;;;;5058473;28;20526;-69
2022/12/05 01:47:52;;;;;;;37.55;21.20;;;;;;;;;;5060608;28;20487;-69
2022/12/05 01:50:19;;;;;;;40.13;20.50;;;;;;;;;;5055674;28;20053;-68
2022/12/05 01:52:45;;;;;;;31.77;19.20;;;;;;;;;;5049334;28;20500;-69
2022/12/05 01:55:13;;;;;;;40.90;19.58;;;;;;;;;;5047026;28;20059;-69
2022/12/05 01:57:40;;;;;;;44.83;20.85;;;;;;;;;;5059064;28;20112;-69
2022/12/05 02:00:11;;;;;;;38.75;19.40;;;;;;;;;;5060823;28;20057;-69
2022/12/05 02:02:40;;;;;;;41.30;21.15;;;;;;;;;;5062058;28;20099;-68
2022/12/05 02:05:10;;;;;;;40.15;20.05;;;;;;;;;;5060340;28;20045;-69
2022/12/05 02:07:38;;;;;;;43.05;20.23;;;;;;;;;;5057887;28;20054;-68
2022/12/05 02:10:05;;;;;;;44.53;20.23;;;;;;;;;;5051636;28;20104;-69
2022/12/05 02:12:31;;;;;;;40.13;18.77;;;;;;;;;;5058861;28;20057;-69
2022/12/05 02:15:04;;;;;;;35.72;19.05;;;;;;;;;;5065580;28;20169;-69
2022/12/05 02:17:45;;;;;;;36.47;19.13;;;;;;;;;;5059310;28;20049;-69
2022/12/05 02:20:17;;;;;;;38.35;19.52;;;;;;;;;;5052237;28;20057;-69
2022/12/05 02:22:52;;;;;;;37.88;20.60;;;;;;;;;;5063161;28;20057;-69
2022/12/05 02:25:37;;;;;;;39.30;20.00;;;;;;;;;;5045138;28;20053;-69
2022/12/05 02:28:22;;;;;;;45.50;20.83;;;;;;;;;;5061523;28;20049;-69
2022/12/05 02:30:56;;;;;;;43.27;20.70;;;;;;;;;;5059516;28;20049;-69
2022/12/05 02:33:29;;;;;;;36.15;18.98;;;;;;;;;;5066919;28;20118;-69
2022/12/05 02:36:18;;;;;;;36.33;19.25;;;;;;;;;;5067598;28;20056;-69
2022/12/05 02:38:52;;;;;;;37.22;18.77;;;;;;;;;;5064870;28;20060;-69
2022/12/05 02:41:36;;;;;;;37.13;19.38;;;;;;;;;;5067009;28;20060;-70
2022/12/05 02:44:08;;;;;;;39.55;18.80;;;;;;;;;;5064750;28;20049;-69
2022/12/05 02:46:36;;;;;;;36.05;18.17;;;;;;;;;;5059617;28;20049;-69
2022/12/05 02:49:06;;;;;;;43.00;19.83;;;;;;;;;;5057085;28;20056;-69
2022/12/05 02:51:34;;;;;;;40.15;20.13;;;;;;;;;;5059716;28;20053;-69
2022/12/05 02:54:02;;;;;;;41.40;19.27;;;;;;;;;;5062450;28;20064;-69
2022/12/05 02:56:31;;;;;;;40.95;18.75;;;;;;;;;;5063923;28;20428;-69
2022/12/05 02:58:57;;;;;;;42.63;19.58;;;;;;;;;;5066229;28;20057;-69
2022/12/05 03:01:26;;;;;;;45.35;19.55;;;;;;;;;;5060755;28;20053;-69
2022/12/05 03:03:53;;;;;;;34.72;17.33;;;;;;;;;;5064255;28;20049;-69
2022/12/05 03:06:22;;;;;;;35.28;18.02;;;;;;;;;;5062885;28;20088;-69
2022/12/05 03:09:03;;;;;;;40.28;19.27;;;;;;;;;;5064224;28;20901;-69
2022/12/05 03:11:33;;;;;;;39.63;18.13;;;;;;;;;;5069239;28;20057;-69
2022/12/05 03:14:01;;;;;;;36.13;17.70;;;;;;;;;;5062021;28;20561;-69
2022/12/05 03:16:32;;;;;;;32.10;15.95;;;;;;;;;;5061085;28;20164;-69
2022/12/05 03:19:01;;;;;;;38.88;18.42;;;;;;;;;;5062107;28;21742;-69
2022/12/05 03:21:54;;;;;;;43.78;19.70;;;;;;;;;;5061241;28;20049;-69
2022/12/05 03:24:21;;;;;;;36.15;18.27;;;;;;;;;;5040921;28;20083;-69
2022/12/05 03:27:06;;;;;;;37.08;17.50;;;;;;;;;;5070143;28;20049;-69
2022/12/05 03:29:36;;;;;;;37.78;18.65;;;;;;;;;;5065106;28;20111;-69
2022/12/05 03:32:02;;;;;;;36.10;18.70;;;;;;;;;;5056915;28;20064;-69
2022/12/05 03:34:36;;;;;;;32.42;17.40;;;;;;;;;;5072888;28;20049;-69
2022/12/05 03:37:06;;;;;;;37.22;17.95;;;;;;;;;;5066519;28;20053;-69
2022/12/05 03:39:34;;;;;;;35.85;18.25;;;;;;;;;;5065687;28;20052;-69
2022/12/05 03:42:03;;;;;;;35.83;18.08;;;;;;;;;;5057388;28;20131;-69
2022/12/05 03:44:34;;;;;;;35.97;18.00;;;;;;;;;;5060333;28;20521;-69
2022/12/05 03:47:13;;;;;;;33.47;17.85;;;;;;;;;;5062797;28;20103;-68
2022/12/05 03:49:51;;;;;;;32.65;17.50;;;;;;;;;;5062435;28;20832;-69
2022/12/05 03:52:21;;;;;;;30.65;16.83;;;;;;;;;;5062094;28;20041;-69
2022/12/05 03:54:52;;;;;;;31.88;17.55;;;;;;;;;;5067711;28;20083;-69
2022/12/05 03:57:20;;;;;;;30.52;16.23;;;;;;;;;;5052426;28;20099;-69
2022/12/05 03:59:49;;;;;;;27.00;15.82;;;;;;;;;;5061118;28;20077;-69
2022/12/05 04:02:22;;;;;;;30.20;16.13;;;;;;;;;;5060527;28;20052;-69
2022/12/05 04:05:05;;;;;;;31.38;16.70;;;;;;;;;;5054411;28;20056;-69
2022/12/05 04:07:34;;;;;;;30.23;16.13;;;;;;;;;;5055255;28;20067;-69
2022/12/05 04:10:08;;;;;;;31.17;16.02;;;;;;;;;;5060864;28;20080;-69
2022/12/05 04:12:36;;;;;;;33.17;16.33;;;;;;;;;;5062489;28;20060;-68
2022/12/05 04:15:07;;;;;;;27.73;14.90;;;;;;;;;;5062717;28;20053;-69
2022/12/05 04:17:44;;;;;;;32.10;17.48;;;;;;;;;;5061108;28;20057;-69
2022/12/05 04:23:11;;;;;;;30.80;15.25;;;;;;;;;;5060662;28;20510;-69
2022/12/05 04:25:47;;;;;;;35.90;17.48;;;;;;;;;;5062308;28;20063;-69
2022/12/05 04:28:31;;;;;;;30.83;16.05;;;;;;;;;;5064451;28;20847;-69
2022/12/05 04:31:09;;;;;;;35.03;16.38;;;;;;;;;;5061165;28;20048;-69
2022/12/05 04:33:44;;;;;;;36.35;17.83;;;;;;;;;;5059985;28;20145;-69
2022/12/05 04:36:11;;;;;;;33.35;16.55;;;;;;;;;;5064882;28;20049;-69
2022/12/05 04:38:56;;;;;;;30.73;16.67;;;;;;;;;;5064756;28;20056;-69
2022/12/05 04:41:24;;;;;;;33.08;16.52;;;;;;;;;;5048834;28;20057;-69
2022/12/05 04:43:52;;;;;;;34.17;16.42;;;;;;;;;;5061487;28;20499;-69
2022/12/05 04:46:20;;;;;;;34.90;18.23;;;;;;;;;;5061287;28;20060;-69
2022/12/05 04:48:48;;;;;;;34.35;17.25;;;;;;;;;;5059544;28;20051;-69
2022/12/05 04:51:17;;;;;;;39.88;18.70;;;;;;;;;;5060835;28;20056;-69
2022/12/05 04:53:44;;;;;;;32.35;18.02;;;;;;;;;;5060859;28;20057;-69
2022/12/05 04:56:13;;;;;;;37.00;19.67;;;;;;;;;;5062050;28;20052;-69
2022/12/05 04:58:39;;;;;;;36.00;18.75;;;;;;;;;;5060751;28;20488;-69
2022/12/05 05:01:06;;;;;;;33.50;17.85;;;;;;;;;;5053826;28;20052;-70
2022/12/05 05:03:38;;;;;;;34.70;18.65;;;;;;;;;;5061899;28;20644;-69
2022/12/05 05:06:06;;;;;;;37.47;19.23;;;;;;;;;;5061245;28;20617;-69
2022/12/05 05:08:32;;;;;;;38.85;19.70;;;;;;;;;;5061397;28;20053;-69
2022/12/05 05:11:19;;;;;;;37.58;18.95;;;;;;;;;;5045854;28;20053;-69
2022/12/05 05:13:45;;;;;;;33.00;17.70;;;;;;;;;;5055632;28;20515;-69
2022/12/05 05:16:19;;;;;;;45.22;20.15;;;;;;;;;;5061337;28;20400;-69
2022/12/05 05:18:46;;;;;;;36.40;19.77;;;;;;;;;;5061223;28;20048;-70
2022/12/05 05:21:24;;;;;;;36.35;18.48;;;;;;;;;;5060407;28;20053;-69
2022/12/05 05:23:50;;;;;;;34.72;15.40;;;;;;;;;;5055958;28;20053;-70
2022/12/05 05:26:17;;;;;;;42.10;19.90;;;;;;;;;;5064534;28;20052;-69
2022/12/05 05:28:44;;;;;;;41.90;19.70;;;;;;;;;;5058118;28;20064;-69
2022/12/05 05:31:11;;;;;;;41.83;19.30;;;;;;;;;;5061106;28;20055;-70
2022/12/05 05:33:38;;;;;;;36.90;18.40;;;;;;;;;;5062395;28;20084;-70
2022/12/05 05:36:05;;;;;;;40.83;20.23;;;;;;;;;;5053480;28;20083;-70
2022/12/05 05:38:34;;;;;;;39.70;19.85;;;;;;;;;;5061946;28;20662;-69
2022/12/05 05:41:00;;;;;;;41.40;19.30;;;;;;;;;;5061194;28;20049;-70
2022/12/05 05:43:27;;;;;;;40.78;19.98;;;;;;;;;;5050129;28;20079;-69
2022/12/05 05:45:53;;;;;;;38.53;18.80;;;;;;;;;;5054543;28;20053;-69
2022/12/05 05:48:19;;;;;;;36.88;19.05;;;;;;;;;;5054678;28;20510;-70
2022/12/05 05:50:45;;;;;;;41.13;19.95;;;;;;;;;;5060407;28;20072;-69
2022/12/05 05:53:12;;;;;;;40.63;20.20;;;;;;;;;;5055938;28;20818;-70
2022/12/05 05:55:39;;;;;;;44.25;21.48;;;;;;;;;;5053174;28;20053;-69
2022/12/05 05:58:06;;;;;;;41.50;21.08;;;;;;;;;;5049546;28;20053;-70
2022/12/05 06:00:33;;;;;;;42.72;20.83;;;;;;;;;;5055239;28;20215;-70
2022/12/05 06:02:59;;;;;;;41.58;19.20;;;;;;;;;;5063065;28;20057;-69
2022/12/05 06:05:26;;;;;;;40.17;19.92;;;;;;;;;;5052937;28;20057;-69
2022/12/05 06:07:52;;;;;;;42.30;18.63;;;;;;;;;;5060601;28;20535;-70
2022/12/05 06:10:18;;;;;;;41.83;20.20;;;;;;;;;;5062835;28;20523;-69
2022/12/05 06:12:45;;;;;;;41.97;20.42;;;;;;;;;;5060371;28;20538;-69
2022/12/05 06:15:12;;;;;;;36.90;18.13;;;;;;;;;;5062970;28;20057;-70
2022/12/05 06:17:38;;;;;;;41.58;17.92;;;;;;;;;;5065197;28;20060;-69
2022/12/05 06:20:05;;;;;;;41.65;19.75;;;;;;;;;;5063578;28;20601;-69
2022/12/05 06:22:31;;;;;;;41.42;18.77;;;;;;;;;;5064022;28;20147;-70
2022/12/05 06:24:58;;;;;;;39.80;19.08;;;;;;;;;;5054884;28;20145;-70
2022/12/05 06:27:24;;;;;;;42.78;20.52;;;;;;;;;;5061895;28;20533;-69
2022/12/05 06:29:51;;;;;;;47.13;21.33;;;;;;;;;;5058803;28;20064;-69
2022/12/05 06:32:18;;;;;;;38.60;18.02;;;;;;;;;;5059599;28;20514;-69
2022/12/05 06:34:44;;;;;;;41.53;18.42;;;;;;;;;;5048049;28;20393;-69
2022/12/05 06:37:10;;;;;;;41.45;19.42;;;;;;;;;;5064721;28;20805;-69
2022/12/05 06:39:37;;;;;;;38.88;18.95;;;;;;;;;;5063790;28;20509;-68
2022/12/05 06:42:04;;;;;;;42.35;20.50;;;;;;;;;;5061127;28;20143;-70
2022/12/05 06:44:30;;;;;;;39.28;18.13;;;;;;;;;;5062703;28;20158;-70
2022/12/05 06:46:56;;;;;;;38.22;18.92;;;;;;;;;;5061102;28;20139;-69
2022/12/05 06:49:25;;;;;;;36.80;19.33;;;;;;;;;;5060791;28;20626;-69
2022/12/05 06:51:58;;;;;;;;;;;;;;;;;;5065199;28;20056;-69
2022/12/05 06:54:25;;;;;;;;;;;;;;;;;;5070930;28;44248;-68
2022/12/05 06:56:51;;;;;;;37.97;16.90;;;;;;;;;;5082789;28;46003;-68
2022/12/05 06:59:17;;;;;;;40.55;16.65;;;;;;;;;;5059692;28;20538;-68
2022/12/05 07:01:45;;;;;;;34.63;17.67;;;;;;;;;;5066277;28;20110;-68
2022/12/05 07:04:11;;;;;;;39.17;17.63;;;;;;;;;;5064295;28;20046;-71
2022/12/05 07:06:38;;;;;;;37.30;19.27;;;;;;;;;;5068547;28;20064;-69
2022/12/05 07:09:05;;;;;;;36.42;16.80;;;;;;;;;;5083444;28;20125;-70
2022/12/05 07:11:32;;;;;;;41.03;18.80;;;;;;;;;;5084054;28;20057;-66
2022/12/05 07:13:58;;;;;;;40.05;17.73;;;;;;;;;;5064664;28;20558;-68
2022/12/05 07:16:24;;;;;;;36.50;17.33;;;;;;;;;;5061856;28;20534;-69
2022/12/05 07:18:51;;;;;;;34.53;17.05;;;;;;;;;;5082545;28;20148;-70
2022/12/05 07:21:19;;;;;;;32.20;16.50;;;;;;;;;;5052932;28;20144;-70
2022/12/05 07:23:45;;;;;;;31.30;16.83;;;;;;;;;;5066390;28;20216;-70
2022/12/05 07:26:13;;;;;;;30.15;16.58;;;;;;;;;;5055630;28;20495;-68
2022/12/05 07:28:39;;;;;;;38.85;17.25;;;;;;;;;;5084190;28;20477;-70
2022/12/05 07:31:07;;;;;;;29.98;16.38;;;;;;;;;;5060336;28;20142;-68
2022/12/05 07:33:34;;;;;;;31.23;15.82;;;;;;;;;;5052096;28;20045;-70
2022/12/05 07:36:08;;;;;;;31.77;14.57;;;;;;;;;;5054803;28;20096;-68
2022/12/05 07:38:34;;;;;;;31.33;15.25;;;;;;;;;;5066334;28;20503;-70
2022/12/05 07:41:08;;;;;;;26.38;14.88;;;;;;;;;;5069463;28;20046;-70
2022/12/05 07:43:39;;;;;;;29.00;13.95;;;;;;;;;;5069844;28;20056;-68
2022/12/05 07:46:06;;;;;;;24.88;14.05;;;;;;;;;;5071789;28;20049;-71
2022/12/05 07:48:32;;;;;;;27.23;15.15;;;;;;;;;;5078136;28;20056;-69
2022/12/05 07:51:02;;;;;;;26.15;14.05;;;;;;;;;;5061445;28;20129;-70
2022/12/05 07:53:29;;;;;;;28.48;14.75;;;;;;;;;;5052320;28;20064;-69
2022/12/05 07:55:59;;;;;;;28.98;14.80;;;;;;;;;;5070194;28;20045;-70
2022/12/05 07:58:29;;;;;;;24.25;14.25;;;;;;;;;;5083440;28;20608;-69
2022/12/05 08:00:55;;;;;;;25.92;14.00;;;;;;;;;;5062543;28;20049;-69
2022/12/05 08:03:22;;;;;;;27.25;15.18;;;;;;;;;;5059975;28;20052;-68
2022/12/05 08:05:49;;;;;;;26.73;13.27;;;;;;;;;;5082045;28;20553;-69
2022/12/05 08:08:15;;;;;;;23.50;14.13;;;;;;;;;;5043526;28;20540;-69
2022/12/05 08:10:41;;;;;;;24.30;13.60;;;;;;;;;;5055444;28;20139;-70
2022/12/05 08:13:08;;;;;;;27.02;14.00;;;;;;;;;;5063843;28;20049;-69
2022/12/05 08:15:35;;;;;;;27.48;14.88;;;;;;;;;;5057551;28;20053;-69
2022/12/05 08:18:02;;;;;;;24.02;14.77;;;;;;;;;;5063027;28;20444;-67
2022/12/05 08:20:29;;;;;;;28.70;14.27;;;;;;;;;;5061993;28;20519;-68
2022/12/05 08:22:55;;;;;;;23.10;13.38;;;;;;;;;;5062706;28;20534;-70
2022/12/05 08:25:22;;;;;;;22.23;14.27;;;;;;;;;;5063187;28;20503;-67
2022/12/05 08:27:48;;;;;;;22.98;13.63;;;;;;;;;;5067135;28;20605;-68
2022/12/05 08:30:14;;;;;;;27.77;13.88;;;;;;;;;;5045417;28;20048;-68
2022/12/05 08:32:41;;;;;;;22.30;12.93;;;;;;;;;;5063246;28;20454;-68
2022/12/05 08:35:08;;;;;;;21.60;12.90;;;;;;;;;;5049794;28;20049;-70
2022/12/05 08:37:34;;;;;;;21.27;13.80;;;;;;;;;;5043193;28;20049;-68
2022/12/05 08:40:01;;;;;;;23.25;13.32;;;;;;;;;;5053327;28;20577;-68
2022/12/05 08:42:27;;;;;;;25.80;13.00;;;;;;;;;;5056473;28;20056;-68
2022/12/05 08:44:53;;;;;;;24.88;12.65;;;;;;;;;;5069501;28;20535;-67
2022/12/05 08:47:20;;;;;;;24.25;13.00;;;;;;;;;;5063757;28;20053;-67
2022/12/05 08:49:47;;;;;;;16.80;11.73;;;;;;;;;;5072357;28;20144;-70
2022/12/05 08:52:13;;;;;;;22.77;12.50;;;;;;;;;;5068382;28;20570;-70
2022/12/05 08:54:39;;;;;;;19.83;11.95;;;;;;;;;;5054263;28;20050;-70
2022/12/05 08:57:06;;;;;;;19.13;11.68;;;;;;;;;;5043590;28;20064;-69
2022/12/05 08:59:32;;;;;;;16.17;10.18;;;;;;;;;;5051549;28;20091;-71
2022/12/05 09:01:58;;;;;;;18.80;11.07;;;;;;;;;;5076289;28;20045;-70
2022/12/05 09:04:25;;;;;;;16.67;10.18;;;;;;;;;;5060377;28;20045;-69
2022/12/05 09:06:51;;;;;;;16.02;9.52;;;;;;;;;;5043645;28;20069;-69
2022/12/05 09:09:17;;;;;;;15.38;9.52;;;;;;;;;;5048071;28;20049;-71
2022/12/05 09:11:49;;;;;;;15.00;9.88;;;;;;;;;;5045482;28;20053;-71
2022/12/05 09:14:16;;;;;;;15.68;9.05;;;;;;;;;;5054723;28;20070;-71
2022/12/05 09:16:43;;;;;;;15.73;9.13;;;;;;;;;;5069669;28;20049;-70
2022/12/05 09:19:11;;;;;;;12.20;8.02;;;;;;;;;;5065220;28;20527;-70
2022/12/05 09:21:37;;;;;;;14.52;8.85;;;;;;;;;;5064209;28;20089;-70
2022/12/05 09:24:03;;;;;;;13.38;8.63;;;;;;;;;;5061637;28;20064;-71
2022/12/05 09:26:30;;;;;;;13.65;8.13;;;;;;;;;;5064837;28;20477;-71
2022/12/05 09:28:56;;;;;;;12.73;8.38;;;;;;;;;;5072838;28;20060;-70
2022/12/05 09:31:25;;;;;;;15.90;8.38;;;;;;;;;;5063105;28;20049;-69
2022/12/05 09:33:52;;;;;;;10.85;7.63;;;;;;;;;;5066532;28;20068;-70
2022/12/05 09:36:20;;;;;;;15.90;8.88;;;;;;;;;;5066239;28;20067;-70
2022/12/05 09:38:46;;;;;;;12.18;8.27;;;;;;;;;;5063089;28;20057;-70
2022/12/05 09:41:16;;;;;;;12.32;8.63;;;;;;;;;;5054465;28;20051;-71
2022/12/05 09:44:04;;;;;;;11.10;8.00;;;;;;;;;;5085988;28;20059;-70
2022/12/05 09:46:42;;;;;;;13.23;8.15;;;;;;;;;;5059887;28;20060;-70
2022/12/05 09:49:10;;;;;;;15.48;7.88;;;;;;;;;;5071322;28;20518;-71
2022/12/05 09:51:38;;;;;;;13.63;8.80;;;;;;;;;;5064656;28;20045;-72
2022/12/05 09:54:05;;;;;;;13.50;8.75;;;;;;;;;;5069371;28;20143;-69
2022/12/05 09:56:31;;;;;;;12.75;8.65;;;;;;;;;;5066269;28;20530;-70
2022/12/05 09:58:59;;;;;;;10.23;7.97;;;;;;;;;;5058214;28;20559;-70
2022/12/05 10:01:32;;;;;;;15.50;8.10;;;;;;;;;;5056899;28;20051;-71
2022/12/05 10:04:01;;;;;;;12.93;8.18;;;;;;;;;;5065459;28;20418;-71
2022/12/05 10:06:29;;;;;;;9.75;7.50;;;;;;;;;;5052908;28;20072;-71
2022/12/05 10:08:59;;;;;;;10.90;7.40;;;;;;;;;;5050634;28;20057;-70
2022/12/05 10:11:35;;;;;;;10.73;7.72;;;;;;;;;;5045252;28;20053;-70
2022/12/05 10:14:01;;;;;;;10.98;7.45;;;;;;;;;;5057818;28;20066;-71
2022/12/05 10:16:32;;;;;;;10.88;7.45;;;;;;;;;;5064120;28;20519;-68
2022/12/05 10:19:03;;;;;;;10.93;6.68;;;;;;;;;;5065024;28;20511;-71
2022/12/05 10:21:32;;;;;;;8.85;6.28;;;;;;;;;;5064304;28;20488;-70
2022/12/05 10:24:00;;;;;;;8.57;5.47;;;;;;;;;;5064384;28;20053;-70
2022/12/05 10:26:28;;;;;;;8.45;5.22;;;;;;;;;;5061816;28;20140;-69
2022/12/05 10:29:01;;;;;;;10.05;5.15;;;;;;;;;;5065625;28;20044;-70
2022/12/05 10:31:33;;;;;;;10.90;5.05;;;;;;;;;;5051079;28;20104;-70
2022/12/05 10:34:23;;;;;;;8.80;5.57;;;;;;;;;;5051668;28;20088;-69
2022/12/05 10:36:53;;;;;;;6.88;4.65;;;;;;;;;;5059978;28;20049;-70
2022/12/05 10:39:19;;;;;;;5.57;4.40;;;;;;;;;;5057750;28;20528;-70
2022/12/05 10:41:46;;;;;;;8.50;4.60;;;;;;;;;;5045208;28;20136;-70
2022/12/05 10:44:12;;;;;;;5.72;3.72;;;;;;;;;;5057577;28;20052;-70
2022/12/05 10:46:38;;;;;;;6.70;4.40;;;;;;;;;;5050932;28;20054;-70
2022/12/05 10:49:10;;;;;;;7.75;4.95;;;;;;;;;;5062806;28;20049;-71
2022/12/05 10:51:37;;;;;;;7.32;4.85;;;;;;;;;;5067033;28;20135;-71
2022/12/05 10:54:12;;;;;;;6.72;4.95;;;;;;;;;;5062522;28;20127;-70
2022/12/05 10:56:43;;;;;;;6.40;4.00;;;;;;;;;;5070033;28;20143;-70
2022/12/05 10:59:11;;;;;;;7.00;4.53;;;;;;;;;;5077507;28;20052;-70
2022/12/05 11:01:42;;;;;;;7.75;4.95;;;;;;;;;;5075508;28;20060;-69
2022/12/05 11:04:18;;;;;;;8.45;4.80;;;;;;;;;;5067193;28;20124;-69
2022/12/05 11:06:49;;;;;;;7.65;4.82;;;;;;;;;;5075874;28;20177;-69
2022/12/05 11:09:18;;;;;;;7.20;4.90;;;;;;;;;;5076044;28;20045;-70
2022/12/05 11:12:13;;;;;;;8.13;4.70;;;;;;;;;;5070776;28;20088;-70
2022/12/05 11:14:45;;;;;;;8.48;4.95;;;;;;;;;;5064010;28;20051;-69
2022/12/05 11:17:21;;;;;;;8.43;4.57;;;;;;;;;;5048177;28;20053;-70
2022/12/05 11:19:47;;;;;;;7.53;5.60;;;;;;;;;;5076005;28;20075;-70
2022/12/05 11:22:15;;;;;;;10.23;5.18;;;;;;;;;;5062617;28;20045;-70
2022/12/05 11:24:42;;;;;;;11.63;5.78;;;;;;;;;;5065668;28;20045;-70
2022/12/05 11:27:14;;;;;;;7.55;5.30;;;;;;;;;;5069585;28;20103;-70
2022/12/05 11:29:41;;;;;;;9.95;5.47;;;;;;;;;;5068586;28;20059;-70
2022/12/05 11:32:16;;;;;;;8.52;5.35;;;;;;;;;;5053485;28;20057;-71
2022/12/05 11:34:46;;;;;;;10.90;6.13;;;;;;;;;;5054855;28;20058;-70
2022/12/05 11:37:16;;;;;;;8.45;5.18;;;;;;;;;;5083689;28;20049;-70
2022/12/05 11:39:42;;;;;;;8.75;4.90;;;;;;;;;;5068252;28;20411;-70
2022/12/05 11:42:23;;;;;;;11.00;5.95;;;;;;;;;;5066271;28;20619;-70
2022/12/05 11:44:49;;;;;;;10.50;5.80;;;;;;;;;;5044094;28;20080;-70
2022/12/05 11:47:18;;;;;;;10.68;5.30;;;;;;;;;;5044278;28;20125;-71
2022/12/05 11:50:06;;;;;;;6.50;5.10;;;;;;;;;;5045604;28;20049;-70
2022/12/05 11:52:50;;;;;;;12.40;5.57;;;;;;;;;;5055773;28;20049;-70
2022/12/05 11:55:33;;;;;;;8.90;5.68;;;;;;;;;;5064037;28;20053;-70
2022/12/05 11:58:18;;;;;;;10.25;6.00;;;;;;;;;;5055103;28;20443;-70
2022/12/05 12:00:58;;;;;;;7.15;4.68;;;;;;;;;;5077033;28;20059;-69
2022/12/05 12:03:44;;;;;;;9.55;5.22;;;;;;;;;;5080247;28;20125;-71
2022/12/05 12:06:19;;;;;;;11.52;5.53;;;;;;;;;;5047212;28;20045;-69
2022/12/05 12:08:50;;;;;;;9.18;5.95;;;;;;;;;;5065151;28;20048;-69
2022/12/05 12:11:23;;;;;;;8.15;5.13;;;;;;;;;;5058820;28;20099;-71
2022/12/05 12:13:55;;;;;;;8.13;4.85;;;;;;;;;;5077017;28;20147;-70
2022/12/05 12:16:25;;;;;;;11.38;5.07;;;;;;;;;;5073998;28;20053;-69
2022/12/05 12:19:09;;;;;;;10.32;5.32;;;;;;;;;;5075436;28;20052;-70
2022/12/05 12:21:39;;;;;;;8.30;5.30;;;;;;;;;;5068452;28;20546;-68
2022/12/05 12:24:24;;;;;;;8.90;5.47;;;;;;;;;;5062992;28;20053;-69
2022/12/05 12:26:52;;;;;;;9.48;4.97;;;;;;;;;;5063348;28;20068;-69
2022/12/05 12:29:50;;;;;;;9.07;5.57;;;;;;;;;;5061350;28;20084;-69
2022/12/05 12:32:17;;;;;;;11.00;4.53;;;;;;;;;;5042939;28;20045;-70
2022/12/05 12:35:02;;;;;;;14.30;5.78;;;;;;;;;;5078841;28;20651;-68
2022/12/05 12:37:47;;;;;;;15.07;5.83;;;;;;;;;;5042755;28;20107;-69
2022/12/05 12:40:39;;;;;;;11.20;5.30;;;;;;;;;;5057727;28;20401;-70
2022/12/05 12:43:18;;;;;;;13.35;5.10;;;;;;;;;;5035423;28;20050;-69
2022/12/05 12:46:08;;;;;;;8.57;5.35;;;;;;;;;;5065664;28;20056;-70
2022/12/05 12:48:52;;;;;;;10.65;5.00;;;;;;;;;;5071729;28;20534;-69
2022/12/05 12:51:18;;;;;;;11.75;5.07;;;;;;;;;;5071388;28;20068;-70
2022/12/05 12:53:53;;;;;;;7.85;4.75;;;;;;;;;;5065865;28;20152;-70
2022/12/05 12:56:23;;;;;;;9.52;5.57;;;;;;;;;;5053805;28;20058;-69
2022/12/05 12:59:07;;;;;;;8.55;5.07;;;;;;;;;;5064558;28;20529;-71
2022/12/05 13:01:39;;;;;;;6.68;4.57;;;;;;;;;;5062937;28;20513;-70
2022/12/05 13:04:11;;;;;;;10.43;5.38;;;;;;;;;;5066080;28;20056;-70
2022/12/05 13:06:43;;;;;;;10.40;5.35;;;;;;;;;;5074914;28;20057;-69
2022/12/05 13:09:19;;;;;;;7.60;5.00;;;;;;;;;;5072888;28;20458;-69
2022/12/05 13:11:47;;;;;;;6.95;5.30;;;;;;;;;;5050801;28;20057;-70
2022/12/05 13:14:15;;;;;;;8.82;4.72;;;;;;;;;;5068062;28;20659;-70
2022/12/05 13:16:43;;;;;;;8.65;4.63;;;;;;;;;;5055912;28;20049;-70
2022/12/05 13:19:20;;;;;;;9.25;4.95;;;;;;;;;;5046343;28;21025;-71
2022/12/05 13:21:47;;;;;;;10.45;5.43;;;;;;;;;;5065550;28;20064;-70
2022/12/05 13:24:16;;;;;;;8.43;4.93;;;;;;;;;;5057246;28;20060;-70
2022/12/05 13:26:46;;;;;;;9.95;5.45;;;;;;;;;;5059693;28;20075;-69
2022/12/05 13:29:28;;;;;;;8.68;5.32;;;;;;;;;;5052618;28;20046;-71
2022/12/05 13:31:54;;;;;;;9.88;5.40;;;;;;;;;;5076512;28;20053;-69
2022/12/05 13:34:44;;;;;;;7.47;4.75;;;;;;;;;;5062359;28;20053;-69
2022/12/05 13:42:57;;;;;;;8.00;4.87;;;;;;;;;;5066896;28;20056;-69
2022/12/05 13:45:24;;;;;;;6.75;3.88;;;;;;;;;;5066120;28;20263;-70
2022/12/05 13:47:59;;;;;;;6.88;4.65;;;;;;;;;;5072558;28;20057;-70
2022/12/05 13:50:25;;;;;;;8.40;4.85;;;;;;;;;;5041728;28;20794;-70
2022/12/05 13:52:56;;;;;;;7.80;4.68;;;;;;;;;;5048254;28;20049;-71
2022/12/05 13:55:33;;;;;;;7.35;4.53;;;;;;;;;;5063206;28;20711;-69
2022/12/05 13:58:22;;;;;;;6.15;4.30;;;;;;;;;;5074915;28;20148;-70
2022/12/05 14:00:48;;;;;;;8.40;4.90;;;;;;;;;;5060402;28;20052;-69
2022/12/05 14:03:33;;;;;;;7.97;4.70;;;;;;;;;;5074416;28;20106;-70
2022/12/05 14:06:00;;;;;;;8.38;5.18;;;;;;;;;;5081896;28;20048;-70
2022/12/05 14:08:29;;;;;;;9.65;4.45;;;;;;;;;;5081506;28;20053;-69
2022/12/05 14:10:55;;;;;;;7.15;4.40;;;;;;;;;;5079046;28;20533;-69
2022/12/05 14:13:28;;;;;;;6.38;4.25;;;;;;;;;;5058855;28;20057;-69
2022/12/05 14:16:15;;;;;;;6.85;5.00;;;;;;;;;;5072692;28;20114;-71
2022/12/05 14:18:52;;;;;;;9.48;5.05;;;;;;;;;;5061883;28;20068;-70
2022/12/05 14:21:37;;;;;;;7.50;4.35;;;;;;;;;;5067247;28;20052;-70
2022/12/05 14:24:07;;;;;;;5.50;4.28;;;;;;;;;;5085314;28;20056;-70
2022/12/05 14:26:52;;;;;;;5.70;3.90;;;;;;;;;;5062139;28;20044;-70
2022/12/05 14:29:34;;;;;;;7.90;4.75;;;;;;;;;;5046328;28;20140;-71
2022/12/05 14:32:19;;;;;;;6.10;4.28;;;;;;;;;;5067791;28;20045;-71
2022/12/05 14:34:53;;;;;;;7.68;4.30;;;;;;;;;;5080942;28;20087;-69
2022/12/05 14:37:24;;;;;;;7.00;4.03;;;;;;;;;;5051527;28;20599;-71
2022/12/05 14:39:52;;;;;;;7.70;4.28;;;;;;;;;;5062435;28;20045;-70
2022/12/05 14:42:25;;;;;;;8.18;5.13;;;;;;;;;;5064167;28;20057;-70
2022/12/05 14:44:53;;;;;;;7.55;4.43;;;;;;;;;;5045171;28;20064;-71
2022/12/05 14:47:31;;;;;;;7.28;4.57;;;;;;;;;;5044204;28;20104;-70
2022/12/05 14:50:00;;;;;;;7.40;4.93;;;;;;;;;;5049896;28;20529;-71
2022/12/05 14:52:29;;;;;;;9.40;4.25;;;;;;;;;;5053497;28;20523;-69
2022/12/05 14:55:10;;;;;;;6.38;4.30;;;;;;;;;;5045765;28;20054;-71